createdAt,value
2022-08-09T00:00:00.838Z,57.17
2022-08-09T00:02:37.706Z,57.13
2022-08-09T00:06:19.618Z,57.09
2022-08-09T00:08:09.860Z,57.13
2022-08-09T00:10:38.529Z,57.20
2022-08-09T00:13:16.983Z,57.17
2022-08-09T00:15:58.985Z,57.10
2022-08-09T00:18:31.397Z,57.14
2022-08-09T00:21:05.040Z,57.30
2022-08-09T00:23:57.030Z,57.02
2022-08-09T00:26:29.520Z,57.17
2022-08-09T00:29:00.554Z,57.22
2022-08-09T00:31:57.217Z,57.49
2022-08-09T00:34:19.348Z,57.27
2022-08-09T00:36:49.242Z,57.27
2022-08-09T00:40:12.838Z,57.20
2022-08-09T00:44:10.711Z,57.27
2022-08-09T00:44:53.656Z,57.13
2022-08-09T00:47:21.711Z,57.17
2022-08-09T00:49:54.794Z,57.34
2022-08-09T00:52:30.200Z,57.21
2022-08-09T00:54:58.914Z,57.07
2022-08-09T00:57:34.447Z,57.35
2022-08-09T01:00:05.357Z,57.31
2022-08-09T01:02:50.170Z,57.18
2022-08-09T01:05:18.610Z,57.24
2022-08-09T01:08:00.843Z,57.30
2022-08-09T01:10:31.705Z,57.35
2022-08-09T01:13:02.432Z,57.12
2022-08-09T01:15:30.754Z,57.36
2022-08-09T01:18:00.637Z,57.34
2022-08-09T01:20:44.209Z,57.30
2022-08-09T01:24:03.258Z,57.28
2022-08-09T01:26:14.820Z,57.30
2022-08-09T01:28:45.302Z,57.50
2022-08-09T01:32:29.525Z,57.37
2022-08-09T01:34:01.505Z,57.31
2022-08-09T01:36:31.036Z,57.21
2022-08-09T01:38:58.993Z,57.25
2022-08-09T01:41:27.200Z,57.25
2022-08-09T01:43:57.448Z,57.38
2022-08-09T01:46:26.912Z,57.36
2022-08-09T01:48:55.531Z,57.36
2022-08-09T01:51:26.176Z,57.60
2022-08-09T01:53:57.780Z,57.21
2022-08-09T01:56:26.534Z,57.45
2022-08-09T01:58:54.471Z,57.37
2022-08-09T02:01:58.165Z,57.58
2022-08-09T02:04:11.534Z,57.39
2022-08-09T02:06:58.554Z,57.39
2022-08-09T02:09:27.009Z,57.29
2022-08-09T02:12:10.587Z,57.39
2022-08-09T02:14:41.795Z,57.52
2022-08-09T02:17:59.830Z,57.41
2022-08-09T02:19:59.448Z,57.36
2022-08-09T02:22:31.751Z,57.32
2022-08-09T02:25:03.760Z,57.47
2022-08-09T02:27:43.457Z,57.48
2022-08-09T02:30:22.492Z,57.48
2022-08-09T02:32:55.615Z,57.65
2022-08-09T02:35:46.358Z,57.75
2022-08-09T02:38:22.124Z,57.33
2022-08-09T02:40:57.460Z,57.62
2022-08-09T02:43:28.853Z,57.49
2022-08-09T02:45:56.714Z,57.46
2022-08-09T02:48:31.497Z,57.53
2022-08-09T02:51:02.437Z,57.45
2022-08-09T02:53:34.332Z,57.56
2022-08-09T02:56:02.256Z,57.58
2022-08-09T02:58:36.971Z,57.71
2022-08-09T03:01:08.060Z,57.66
2022-08-09T03:04:18.203Z,57.54
2022-08-09T03:06:27.962Z,57.60
2022-08-09T03:08:56.883Z,57.58
2022-08-09T03:12:06.287Z,57.53
2022-08-09T03:14:12.752Z,57.76
2022-08-09T03:16:47.442Z,57.81
2022-08-09T03:19:58.168Z,57.65
2022-08-09T03:22:12.210Z,57.58
2022-08-09T03:24:52.448Z,57.72
2022-08-09T03:27:22.186Z,57.71
2022-08-09T03:29:58.026Z,57.70
2022-08-09T03:32:29.217Z,57.51
2022-08-09T03:34:58.485Z,57.70
2022-08-09T03:37:54.784Z,57.68
2022-08-09T03:40:14.103Z,57.56
2022-08-09T03:42:46.581Z,57.74
2022-08-09T03:45:15.492Z,57.67
2022-08-09T03:47:46.254Z,57.76
2022-08-09T03:50:27.632Z,57.66
2022-08-09T03:53:01.034Z,57.66
2022-08-09T03:55:36.132Z,57.53
2022-08-09T03:58:16.671Z,58.00
2022-08-09T04:00:48.746Z,57.84
2022-08-09T04:03:24.754Z,57.54
2022-08-09T04:06:06.112Z,57.76
2022-08-09T04:08:35.993Z,57.76
2022-08-09T04:11:04.198Z,57.71
2022-08-09T04:14:36.929Z,57.65
2022-08-09T04:16:21.875Z,57.75
2022-08-09T04:18:51.315Z,57.85
2022-08-09T04:21:20.788Z,57.83
2022-08-09T04:23:53.781Z,57.59
2022-08-09T04:26:23.291Z,57.86
2022-08-09T04:28:52.400Z,57.99
2022-08-09T04:31:22.830Z,57.91
2022-08-09T04:33:56.949Z,57.89
2022-08-09T04:36:29.088Z,57.87
2022-08-09T04:38:57.280Z,57.88
2022-08-09T04:41:32.462Z,57.81
2022-08-09T04:44:05.680Z,57.63
2022-08-09T04:46:58.169Z,57.81
2022-08-09T04:49:40.549Z,57.80
2022-08-09T04:52:18.357Z,57.88
2022-08-09T04:55:01.051Z,57.69
2022-08-09T04:57:54.409Z,57.85
2022-08-09T05:00:17.596Z,57.99
2022-08-09T05:02:51.900Z,57.82
2022-08-09T05:05:32.390Z,57.81
2022-08-09T05:08:10.174Z,57.91
2022-08-09T05:10:42.098Z,57.95
2022-08-09T05:13:10.907Z,57.79
2022-08-09T05:15:47.636Z,57.96
2022-08-09T05:18:37.864Z,57.98
2022-08-09T05:21:09.695Z,57.99
2022-08-09T05:23:53.557Z,57.91
2022-08-09T05:26:36.592Z,57.85
2022-08-09T05:29:05.537Z,57.85
2022-08-09T05:31:46.410Z,57.86
2022-08-09T05:34:17.400Z,57.91
2022-08-09T05:36:47.115Z,57.86
2022-08-09T05:39:28.525Z,57.87
2022-08-09T05:42:01.589Z,57.96
2022-08-09T05:44:32.298Z,57.79
2022-08-09T05:47:00.883Z,57.96
2022-08-09T05:50:23.168Z,57.92
2022-08-09T05:52:16.849Z,57.97
2022-08-09T05:54:46.492Z,57.94
2022-08-09T05:57:17.491Z,57.94
2022-08-09T05:59:47.109Z,57.98
2022-08-09T06:02:16.971Z,57.90
2022-08-09T06:04:46.513Z,57.83
2022-08-09T06:07:21.506Z,57.88
2022-08-09T06:10:02.407Z,57.82
2022-08-09T06:12:30.811Z,57.85
2022-08-09T06:15:01.244Z,57.99
2022-08-09T06:17:40.425Z,58.08
2022-08-09T06:20:08.871Z,58.02
2022-08-09T06:22:37.023Z,57.98
2022-08-09T06:25:08.579Z,57.97
2022-08-09T06:27:42.200Z,58.07
2022-08-09T06:30:14.153Z,58.00
2022-08-09T06:33:13.702Z,57.95
2022-08-09T06:35:35.777Z,58.04
2022-08-09T06:38:19.697Z,58.04
2022-08-09T06:41:01.225Z,58.03
2022-08-09T06:43:34.358Z,58.02
2022-08-09T06:46:07.628Z,57.91
2022-08-09T06:48:42.851Z,58.10
2022-08-09T06:51:11.081Z,58.04
2022-08-09T06:53:39.640Z,58.20
2022-08-09T06:56:09.539Z,58.13
2022-08-09T07:00:46.672Z,58.19
2022-08-09T07:01:27.571Z,58.34
2022-08-09T07:04:04.326Z,58.10
2022-08-09T07:06:32.241Z,58.22
2022-08-09T07:09:02.351Z,58.15
2022-08-09T07:11:34.226Z,58.29
2022-08-09T07:14:18.099Z,58.09
2022-08-09T07:16:58.046Z,58.15
2022-08-09T07:19:26.609Z,58.17
2022-08-09T07:21:57.211Z,58.04
2022-08-09T07:24:32.425Z,58.25
2022-08-09T07:27:21.071Z,58.08
2022-08-09T07:29:58.554Z,58.29
2022-08-09T07:32:33.194Z,58.39
2022-08-09T07:35:10.824Z,58.18
2022-08-09T07:37:43.488Z,58.19
2022-08-09T07:40:13.524Z,58.48
2022-08-09T07:42:54.202Z,58.14
2022-08-09T07:45:39.621Z,58.14
2022-08-09T07:48:28.818Z,58.08
2022-08-09T07:51:10.094Z,58.16
2022-08-09T07:54:05.151Z,58.06
2022-08-09T07:56:33.915Z,57.85
2022-08-09T07:59:06.373Z,58.04
2022-08-09T08:01:42.222Z,57.88
2022-08-09T08:04:10.520Z,57.95
2022-08-09T08:06:55.935Z,57.96
2022-08-09T08:09:35.534Z,58.04
2022-08-09T08:12:24.671Z,58.04
2022-08-09T08:14:57.431Z,58.17
2022-08-09T08:17:53.064Z,58.03
2022-08-09T08:20:15.319Z,58.13
2022-08-09T08:22:43.167Z,58.08
2022-08-09T08:25:13.476Z,58.17
2022-08-09T08:27:43.013Z,58.07
2022-08-09T08:30:13.787Z,58.06
2022-08-09T08:32:52.734Z,58.31
2022-08-09T08:35:22.414Z,58.11
2022-08-09T08:37:59.437Z,58.04
2022-08-09T08:40:29.689Z,57.95
2022-08-09T08:42:58.846Z,58.07
2022-08-09T08:45:37.237Z,58.11
2022-08-09T08:48:06.126Z,58.04
2022-08-09T08:50:38.290Z,58.09
2022-08-09T08:53:06.489Z,58.20
2022-08-09T08:55:43.584Z,58.07
2022-08-09T08:58:11.545Z,58.22
2022-08-09T09:00:41.313Z,58.20
2022-08-09T09:03:16.421Z,58.20
2022-08-09T09:06:03.011Z,58.34
2022-08-09T09:08:37.946Z,58.10
2022-08-09T09:11:08.333Z,57.87
2022-08-09T09:13:54.749Z,57.92
2022-08-09T09:16:30.458Z,57.81
2022-08-09T09:19:22.827Z,57.76
2022-08-09T09:21:58.067Z,57.83
2022-08-09T09:24:27.928Z,57.79
2022-08-09T09:26:56.244Z,57.78
2022-08-09T09:29:46.008Z,58.02
2022-08-09T09:32:34.861Z,57.95
2022-08-09T09:35:09.336Z,57.63
2022-08-09T09:37:37.536Z,57.69
2022-08-09T09:40:09.357Z,57.63
2022-08-09T09:42:37.304Z,57.61
2022-08-09T09:45:08.410Z,57.71
2022-08-09T09:47:47.799Z,57.84
2022-08-09T09:50:39.720Z,57.94
2022-08-09T09:53:18.002Z,57.53
2022-08-09T09:55:57.583Z,57.63
2022-08-09T09:58:45.144Z,57.54
2022-08-09T10:01:37.359Z,57.43
2022-08-09T10:04:13.830Z,57.48
2022-08-09T10:06:47.200Z,57.44
2022-08-09T10:09:22.123Z,57.35
2022-08-09T10:12:00.014Z,57.48
2022-08-09T10:14:39.165Z,57.29
2022-08-09T10:17:24.073Z,57.20
2022-08-09T10:20:00.129Z,57.21
2022-08-09T10:22:34.911Z,57.12
2022-08-09T10:25:11.680Z,57.26
2022-08-09T10:27:56.101Z,56.88
2022-08-09T10:34:04.696Z,57.08
2022-08-09T10:36:02.749Z,56.96
2022-08-09T10:38:54.390Z,56.91
2022-08-09T10:41:18.695Z,57.07
2022-08-09T10:43:58.578Z,56.86
2022-08-09T10:46:54.151Z,57.08
2022-08-09T10:49:24.477Z,56.71
2022-08-09T10:52:20.220Z,56.92
2022-08-09T10:54:53.306Z,56.80
2022-08-09T10:57:23.378Z,56.67
2022-08-09T10:59:57.787Z,56.95
2022-08-09T11:03:14.213Z,56.84
2022-08-09T11:05:30.318Z,56.69
2022-08-09T11:08:00.498Z,56.77
2022-08-09T11:10:47.022Z,56.66
2022-08-09T11:13:51.032Z,56.76
2022-08-09T11:16:33.420Z,57.01
2022-08-09T11:19:03.294Z,57.07
2022-08-09T11:21:57.277Z,56.92
2022-08-09T11:24:48.411Z,57.38
2022-08-09T11:28:04.069Z,57.11
2022-08-09T11:30:32.390Z,57.01
2022-08-09T11:33:02.708Z,57.14
2022-08-09T11:35:35.280Z,56.94
2022-08-09T11:38:18.072Z,56.80
2022-08-09T11:40:46.756Z,56.96
2022-08-09T11:43:17.488Z,56.97
2022-08-09T11:45:54.575Z,57.15
2022-08-09T11:48:27.696Z,56.99
2022-08-09T11:52:59.085Z,57.06
2022-08-09T11:53:59.917Z,57.06
2022-08-09T11:56:41.788Z,57.14
2022-08-09T11:59:30.262Z,56.82
2022-08-09T12:02:34.483Z,56.77
2022-08-09T12:04:58.004Z,56.74
2022-08-09T12:07:34.347Z,56.77
2022-08-09T12:10:14.437Z,56.84
2022-08-09T12:12:57.620Z,56.77
2022-08-09T12:15:50.503Z,56.98
2022-08-09T12:18:18.043Z,56.95
2022-08-09T12:20:59.128Z,56.95
2022-08-09T12:23:58.004Z,56.84
2022-08-09T12:26:19.848Z,57.10
2022-08-09T12:29:12.149Z,56.91
2022-08-09T12:32:02.584Z,56.65
2022-08-09T12:34:34.515Z,56.70
2022-08-09T12:37:21.489Z,56.89
2022-08-09T12:40:00.072Z,56.75
2022-08-09T12:42:30.203Z,56.92
2022-08-09T12:44:59.365Z,56.79
2022-08-09T12:47:37.069Z,56.52
2022-08-09T12:50:23.352Z,56.85
2022-08-09T12:53:08.184Z,57.12
2022-08-09T12:56:12.574Z,56.85
2022-08-09T12:58:28.774Z,56.83
2022-08-09T13:00:57.573Z,57.02
2022-08-09T13:03:53.223Z,56.92
2022-08-09T13:06:25.317Z,56.72
2022-08-09T13:09:06.253Z,56.63
2022-08-09T13:11:35.160Z,56.65
2022-08-09T13:14:42.609Z,56.66
2022-08-09T13:16:57.145Z,56.61
2022-08-09T13:20:11.303Z,56.61
2022-08-09T13:22:35.263Z,56.26
2022-08-09T13:25:04.714Z,56.42
2022-08-09T13:27:39.493Z,56.42
2022-08-09T13:30:49.245Z,56.37
2022-08-09T13:32:56.685Z,56.23
2022-08-09T13:35:26.326Z,56.04
2022-08-09T13:38:02.691Z,56.45
2022-08-09T13:41:56.383Z,56.38
2022-08-09T13:43:19.303Z,56.36
2022-08-09T13:46:42.739Z,56.33
2022-08-09T13:48:36.435Z,56.25
2022-08-09T13:51:05.595Z,56.22
2022-08-09T13:53:43.141Z,56.03
2022-08-09T13:56:12.359Z,56.16
2022-08-09T13:58:40.177Z,56.10
2022-08-09T14:01:13.409Z,56.24
2022-08-09T14:04:03.654Z,56.27
2022-08-09T14:06:38.173Z,56.44
2022-08-09T14:09:11.624Z,56.37
2022-08-09T14:11:41.263Z,56.03
2022-08-09T14:14:26.069Z,56.21
2022-08-09T14:16:55.450Z,56.05
2022-08-09T14:19:23.286Z,56.26
2022-08-09T14:21:52.450Z,55.81
2022-08-09T14:24:22.160Z,54.69
2022-08-09T14:27:01.306Z,54.35
2022-08-09T14:30:35.694Z,53.45
2022-08-09T14:32:19.720Z,53.13
2022-08-09T14:34:56.930Z,52.82
2022-08-09T14:37:28.167Z,52.58
2022-08-09T14:39:56.890Z,52.44
2022-08-09T14:42:30.077Z,52.76
2022-08-09T14:45:14.881Z,52.02
2022-08-09T14:47:57.046Z,52.55
2022-08-09T14:50:25.746Z,52.37
2022-08-09T14:52:56.225Z,52.44
2022-08-09T14:55:24.070Z,52.44
2022-08-09T14:57:52.871Z,52.04
2022-08-09T15:00:22.274Z,51.65
2022-08-09T15:02:51.891Z,51.79
2022-08-09T15:05:20.135Z,51.07
2022-08-09T15:07:56.661Z,51.64
2022-08-09T15:10:27.333Z,51.57
2022-08-09T15:12:55.426Z,51.22
2022-08-09T15:15:23.520Z,51.00
2022-08-09T15:17:52.707Z,50.55
2022-08-09T15:21:55.866Z,50.75
2022-08-09T15:24:09.042Z,50.84
2022-08-09T15:25:58.841Z,50.06
2022-08-09T15:28:28.170Z,50.39
2022-08-09T15:31:07.261Z,50.07
2022-08-09T15:34:15.411Z,50.03
2022-08-09T15:36:30.613Z,49.80
2022-08-09T15:39:00.088Z,49.82
2022-08-09T15:41:31.354Z,49.61
2022-08-09T15:44:00.406Z,49.29
2022-08-09T15:46:34.077Z,49.53
2022-08-09T15:49:22.253Z,49.44
2022-08-09T15:52:02.829Z,49.58
2022-08-09T15:54:43.001Z,50.14
2022-08-09T15:57:13.618Z,50.04
2022-08-09T15:59:44.811Z,50.30
2022-08-09T16:02:19.277Z,50.49
2022-08-09T16:04:55.158Z,50.75
2022-08-09T16:07:23.124Z,51.15
2022-08-09T16:10:04.094Z,51.31
2022-08-09T16:12:34.566Z,51.23
2022-08-09T16:15:04.890Z,51.83
2022-08-09T16:17:52.795Z,51.95
2022-08-09T16:20:20.638Z,51.73
2022-08-09T17:36:37.789Z,54.12
2022-08-09T17:39:06.006Z,54.05
2022-08-09T17:41:38.560Z,54.07
2022-08-09T17:44:41.767Z,54.41
2022-08-09T17:46:55.543Z,54.36
2022-08-09T17:49:23.555Z,54.14
2022-08-09T17:51:53.610Z,54.06
2022-08-09T17:54:25.206Z,54.41
2022-08-09T17:56:55.732Z,54.37
2022-08-09T17:59:23.711Z,54.26
2022-08-09T18:02:10.876Z,54.49
2022-08-09T18:04:44.002Z,54.45
2022-08-09T18:07:22.979Z,54.45
2022-08-09T18:10:04.651Z,54.46
2022-08-09T18:12:40.616Z,54.58
2022-08-09T18:15:20.881Z,54.70
2022-08-09T18:18:08.888Z,54.43
2022-08-09T18:21:10.426Z,54.55
2022-08-09T18:24:12.681Z,54.40
2022-08-09T18:26:29.514Z,54.39
2022-08-09T18:30:42.021Z,54.54
2022-08-09T18:31:55.491Z,54.61
2022-08-09T18:34:24.375Z,54.54
2022-08-09T18:36:53.351Z,54.42
2022-08-09T18:39:25.077Z,54.74
2022-08-09T18:41:53.896Z,54.72
2022-08-09T18:44:25.329Z,54.75
2022-08-09T18:47:05.149Z,54.86
2022-08-09T18:49:41.741Z,54.84
2022-08-09T18:52:13.949Z,54.81
2022-08-09T18:54:52.700Z,54.91
2022-08-09T18:57:22.016Z,54.97
2022-08-09T18:59:54.459Z,54.85
2022-08-09T19:02:32.691Z,55.04
2022-08-09T19:05:14.475Z,55.07
2022-08-09T19:07:59.021Z,54.92
2022-08-09T19:10:37.408Z,55.13
2022-08-09T19:13:19.214Z,55.09
2022-08-09T19:15:51.520Z,55.00
2022-08-09T19:18:34.109Z,55.10
2022-08-09T19:21:09.874Z,55.04
2022-08-09T19:24:38.011Z,55.21
2022-08-09T19:26:31.742Z,55.05
2022-08-09T19:29:01.557Z,55.22
2022-08-09T19:31:30.546Z,55.09
2022-08-09T19:34:22.122Z,55.36
2022-08-09T19:36:51.214Z,55.05
2022-08-09T19:39:20.992Z,55.23
2022-08-09T19:42:08.036Z,55.31
2022-08-09T19:44:35.609Z,55.31
2022-08-09T19:47:03.508Z,55.19
2022-08-09T19:50:08.111Z,55.40
2022-08-09T19:52:19.964Z,55.33
2022-08-09T19:54:48.023Z,55.32
2022-08-09T19:57:17.540Z,55.23
2022-08-09T19:59:59.319Z,55.23
2022-08-09T20:04:13.911Z,55.39
2022-08-09T20:05:25.109Z,55.50
2022-08-09T20:07:59.520Z,55.33
2022-08-09T20:10:34.329Z,55.52
2022-08-09T20:13:04.789Z,55.44
2022-08-09T20:16:33.354Z,55.47
2022-08-09T20:18:20.276Z,55.67
2022-08-09T20:20:50.517Z,55.65
2022-08-09T20:23:20.979Z,55.74
2022-08-09T20:25:51.314Z,55.73
2022-08-09T20:28:24.403Z,55.76
2022-08-09T20:30:59.700Z,55.75
2022-08-09T20:33:41.014Z,55.59
2022-08-09T20:36:09.306Z,55.60
2022-08-09T20:38:57.152Z,55.76
2022-08-09T20:41:29.232Z,55.76
2022-08-09T20:44:04.653Z,55.90
2022-08-09T20:46:42.846Z,55.65
2022-08-09T20:49:12.393Z,55.76
2022-08-09T20:51:41.500Z,55.70
2022-08-09T20:54:10.527Z,55.99
2022-08-09T20:56:41.022Z,55.95
2022-08-09T20:59:10.100Z,56.05
2022-08-09T21:01:50.012Z,55.83
2022-08-09T21:05:53.562Z,56.18
2022-08-09T21:07:11.596Z,56.00
2022-08-09T21:09:45.957Z,56.20
2022-08-09T21:12:23.703Z,56.18
2022-08-09T21:15:02.603Z,56.24
2022-08-09T21:18:21.862Z,56.27
2022-08-09T21:20:25.809Z,56.36
2022-08-09T21:22:54.232Z,56.16
2022-08-09T21:25:39.714Z,56.19
2022-08-09T21:28:15.743Z,56.47
2022-08-09T21:30:44.989Z,56.25
2022-08-09T21:33:16.031Z,56.32
2022-08-09T21:35:50.761Z,56.33
2022-08-09T21:38:30.870Z,56.39
2022-08-09T21:40:59.179Z,56.38
2022-08-09T21:43:56.752Z,56.20
2022-08-09T21:46:16.397Z,56.54
2022-08-09T21:48:49.241Z,56.46
2022-08-09T21:51:24.346Z,56.48
2022-08-09T21:54:03.746Z,56.36
2022-08-09T21:56:42.041Z,56.54
2022-08-09T21:59:16.099Z,56.52
2022-08-09T22:01:58.653Z,56.48
2022-08-09T22:04:55.046Z,56.55
2022-08-09T22:07:23.372Z,56.63
2022-08-09T22:10:03.506Z,56.64
2022-08-09T22:12:32.069Z,56.59
2022-08-09T22:14:59.664Z,56.52
2022-08-09T22:17:32.136Z,56.61
2022-08-09T22:20:00.815Z,56.54
2022-08-09T22:22:28.596Z,56.74
2022-08-09T22:26:06.159Z,56.83
2022-08-09T22:27:43.737Z,56.63
2022-08-09T22:30:11.951Z,56.98
2022-08-09T22:32:40.929Z,57.00
2022-08-09T22:36:01.739Z,56.82
2022-08-09T22:38:06.557Z,56.89
2022-08-09T22:40:35.455Z,56.93
2022-08-09T22:43:08.549Z,56.94
2022-08-09T22:48:11.232Z,56.83
2022-08-09T22:48:35.446Z,57.11
2022-08-09T22:51:10.813Z,57.01
2022-08-09T22:54:02.290Z,56.68
2022-08-09T22:56:33.079Z,56.83
2022-08-09T22:59:01.260Z,56.90
2022-08-09T23:01:33.810Z,56.87
2022-08-09T23:04:07.252Z,56.91
2022-08-09T23:06:48.962Z,56.96
2022-08-09T23:09:16.609Z,57.08
2022-08-09T23:11:44.127Z,57.18
2022-08-09T23:14:17.015Z,56.94
2022-08-09T23:16:45.143Z,56.95
2022-08-09T23:19:14.001Z,57.15
2022-08-09T23:21:41.539Z,57.04
2022-08-09T23:24:09.496Z,56.98
2022-08-09T23:26:37.042Z,57.01
2022-08-09T23:29:04.912Z,57.15
2022-08-09T23:31:32.448Z,57.37
2022-08-09T23:34:00.029Z,57.13
2022-08-09T23:36:28.868Z,57.23
2022-08-09T23:38:56.628Z,57.10
2022-08-09T23:41:27.845Z,57.24
2022-08-09T23:43:56.728Z,57.21
2022-08-09T23:46:24.304Z,57.21
2022-08-09T23:48:51.775Z,57.21
2022-08-09T23:51:19.362Z,57.12
2022-08-09T23:53:50.449Z,57.23
2022-08-09T23:56:39.573Z,57.31
2022-08-09T23:59:07.441Z,57.22
